sensor_id;sensor_type;location;lat;lon;timestamp;P1;durP1;ratioP1;P2;durP2;ratioP2
12687;SDS011;6408;59.388;17.798;2023-06-19T00:01:22;10.23;;;9.23;;
12687;SDS011;6408;59.388;17.798;2023-06-19T00:03:50;11.75;;;10.55;;
12687;SDS011;6408;59.388;17.798;2023-06-19T00:06:17;11.85;;;10.65;;
12687;SDS011;6408;59.388;17.798;2023-06-19T00:08:45;12.30;;;11.07;;
12687;SDS011;6408;59.388;17.798;2023-06-19T00:11:14;12.95;;;11.48;;
12687;SDS011;6408;59.388;17.798;2023-06-19T00:13:43;13.82;;;12.30;;
12687;SDS011;6408;59.388;17.798;2023-06-19T00:16:10;14.25;;;12.70;;
12687;SDS011;6408;59.388;17.798;2023-06-19T00:18:38;15.63;;;12.95;;
12687;SDS011;6408;59.388;17.798;2023-06-19T00:21:06;15.43;;;12.85;;
12687;SDS011;6408;59.388;17.798;2023-06-19T00:23:34;12.85;;;11.52;;
12687;SDS011;6408;59.388;17.798;2023-06-19T00:26:03;14.10;;;12.60;;
12687;SDS011;6408;59.388;17.798;2023-06-19T00:28:33;14.75;;;13.05;;
12687;SDS011;6408;59.388;17.798;2023-06-19T00:31:08;15.68;;;13.52;;
12687;SDS011;6408;59.388;17.798;2023-06-19T00:33:38;15.63;;;13.77;;
12687;SDS011;6408;59.388;17.798;2023-06-19T00:36:08;16.00;;;12.23;;
12687;SDS011;6408;59.388;17.798;2023-06-19T00:38:36;17.30;;;15.27;;
12687;SDS011;6408;59.388;17.798;2023-06-19T00:41:04;16.30;;;13.82;;
12687;SDS011;6408;59.388;17.798;2023-06-19T00:43:34;17.50;;;13.80;;
12687;SDS011;6408;59.388;17.798;2023-06-19T00:46:02;15.77;;;14.07;;
12687;SDS011;6408;59.388;17.798;2023-06-19T00:48:30;15.93;;;13.90;;
12687;SDS011;6408;59.388;17.798;2023-06-19T00:50:59;18.65;;;14.35;;
12687;SDS011;6408;59.388;17.798;2023-06-19T00:53:26;16.75;;;14.00;;
12687;SDS011;6408;59.388;17.798;2023-06-19T00:55:54;17.80;;;13.90;;
12687;SDS011;6408;59.388;17.798;2023-06-19T00:58:24;16.13;;;14.50;;
12687;SDS011;6408;59.388;17.798;2023-06-19T01:00:54;17.10;;;13.77;;
12687;SDS011;6408;59.388;17.798;2023-06-19T01:03:23;16.95;;;14.32;;
12687;SDS011;6408;59.388;17.798;2023-06-19T01:05:52;15.35;;;13.63;;
12687;SDS011;6408;59.388;17.798;2023-06-19T01:08:25;16.75;;;13.80;;
12687;SDS011;6408;59.388;17.798;2023-06-19T01:11:09;17.00;;;15.20;;
12687;SDS011;6408;59.388;17.798;2023-06-19T01:13:41;18.13;;;15.50;;
12687;SDS011;6408;59.388;17.798;2023-06-19T01:16:13;18.27;;;14.98;;
12687;SDS011;6408;59.388;17.798;2023-06-19T01:18:42;17.25;;;14.75;;
12687;SDS011;6408;59.388;17.798;2023-06-19T01:21:11;18.30;;;15.45;;
12687;SDS011;6408;59.388;17.798;2023-06-19T01:23:41;17.92;;;16.05;;
12687;SDS011;6408;59.388;17.798;2023-06-19T01:26:10;16.63;;;14.80;;
12687;SDS011;6408;59.388;17.798;2023-06-19T01:28:38;18.05;;;16.15;;
12687;SDS011;6408;59.388;17.798;2023-06-19T01:31:08;18.40;;;15.80;;
12687;SDS011;6408;59.388;17.798;2023-06-19T01:33:40;17.60;;;13.95;;
12687;SDS011;6408;59.388;17.798;2023-06-19T01:36:09;15.40;;;13.80;;
12687;SDS011;6408;59.388;17.798;2023-06-19T01:38:38;15.77;;;13.68;;
12687;SDS011;6408;59.388;17.798;2023-06-19T01:41:09;16.88;;;13.95;;
12687;SDS011;6408;59.388;17.798;2023-06-19T01:43:38;15.57;;;13.98;;
12687;SDS011;6408;59.388;17.798;2023-06-19T01:46:06;15.32;;;13.00;;
12687;SDS011;6408;59.388;17.798;2023-06-19T01:48:34;15.25;;;13.02;;
12687;SDS011;6408;59.388;17.798;2023-06-19T01:51:02;15.25;;;13.65;;
12687;SDS011;6408;59.388;17.798;2023-06-19T01:53:30;14.95;;;13.55;;
12687;SDS011;6408;59.388;17.798;2023-06-19T01:55:59;14.88;;;13.40;;
12687;SDS011;6408;59.388;17.798;2023-06-19T01:58:27;14.82;;;13.00;;
12687;SDS011;6408;59.388;17.798;2023-06-19T02:00:55;14.23;;;12.85;;
12687;SDS011;6408;59.388;17.798;2023-06-19T02:03:22;13.77;;;12.48;;
12687;SDS011;6408;59.388;17.798;2023-06-19T02:05:50;13.30;;;11.50;;
12687;SDS011;6408;59.388;17.798;2023-06-19T02:08:18;14.85;;;13.25;;
12687;SDS011;6408;59.388;17.798;2023-06-19T02:10:45;14.63;;;12.73;;
12687;SDS011;6408;59.388;17.798;2023-06-19T02:13:15;14.07;;;12.68;;
12687;SDS011;6408;59.388;17.798;2023-06-19T02:15:42;14.57;;;13.18;;
12687;SDS011;6408;59.388;17.798;2023-06-19T02:18:09;14.70;;;13.30;;
12687;SDS011;6408;59.388;17.798;2023-06-19T02:20:37;12.40;;;11.20;;
12687;SDS011;6408;59.388;17.798;2023-06-19T02:23:05;14.48;;;13.07;;
12687;SDS011;6408;59.388;17.798;2023-06-19T02:25:33;13.52;;;12.23;;
12687;SDS011;6408;59.388;17.798;2023-06-19T02:28:01;14.32;;;12.82;;
12687;SDS011;6408;59.388;17.798;2023-06-19T02:30:30;12.90;;;11.65;;
12687;SDS011;6408;59.388;17.798;2023-06-19T02:32:58;13.35;;;12.15;;
12687;SDS011;6408;59.388;17.798;2023-06-19T02:35:26;12.98;;;11.88;;
12687;SDS011;6408;59.388;17.798;2023-06-19T02:37:53;14.05;;;12.75;;
12687;SDS011;6408;59.388;17.798;2023-06-19T02:40:21;12.57;;;11.27;;
12687;SDS011;6408;59.388;17.798;2023-06-19T02:42:49;12.55;;;11.35;;
12687;SDS011;6408;59.388;17.798;2023-06-19T02:45:16;14.02;;;11.63;;
12687;SDS011;6408;59.388;17.798;2023-06-19T02:47:45;12.45;;;11.35;;
12687;SDS011;6408;59.388;17.798;2023-06-19T02:50:13;12.65;;;11.50;;
12687;SDS011;6408;59.388;17.798;2023-06-19T02:52:40;11.43;;;10.32;;
12687;SDS011;6408;59.388;17.798;2023-06-19T02:55:08;11.02;;;9.93;;
12687;SDS011;6408;59.388;17.798;2023-06-19T02:57:36;11.88;;;10.70;;
12687;SDS011;6408;59.388;17.798;2023-06-19T03:00:03;12.23;;;11.13;;
12687;SDS011;6408;59.388;17.798;2023-06-19T03:02:34;12.82;;;11.77;;
12687;SDS011;6408;59.388;17.798;2023-06-19T03:05:04;11.95;;;10.75;;
12687;SDS011;6408;59.388;17.798;2023-06-19T03:07:32;12.82;;;11.52;;
12687;SDS011;6408;59.388;17.798;2023-06-19T03:09:59;13.40;;;11.38;;
12687;SDS011;6408;59.388;17.798;2023-06-19T03:12:27;12.48;;;11.38;;
12687;SDS011;6408;59.388;17.798;2023-06-19T03:14:55;11.52;;;10.55;;
12687;SDS011;6408;59.388;17.798;2023-06-19T03:17:22;12.13;;;11.00;;
12687;SDS011;6408;59.388;17.798;2023-06-19T03:19:50;12.18;;;11.07;;
12687;SDS011;6408;59.388;17.798;2023-06-19T03:22:20;12.15;;;10.90;;
12687;SDS011;6408;59.388;17.798;2023-06-19T03:24:48;11.55;;;10.40;;
12687;SDS011;6408;59.388;17.798;2023-06-19T03:27:17;11.52;;;10.43;;
12687;SDS011;6408;59.388;17.798;2023-06-19T03:29:45;12.52;;;10.48;;
12687;SDS011;6408;59.388;17.798;2023-06-19T03:32:12;11.52;;;10.52;;
12687;SDS011;6408;59.388;17.798;2023-06-19T03:34:40;12.20;;;11.10;;
12687;SDS011;6408;59.388;17.798;2023-06-19T03:37:08;11.77;;;10.65;;
12687;SDS011;6408;59.388;17.798;2023-06-19T03:39:38;11.90;;;10.65;;
12687;SDS011;6408;59.388;17.798;2023-06-19T03:42:06;12.20;;;10.90;;
12687;SDS011;6408;59.388;17.798;2023-06-19T03:44:34;11.82;;;10.75;;
12687;SDS011;6408;59.388;17.798;2023-06-19T03:47:01;11.60;;;10.25;;
12687;SDS011;6408;59.388;17.798;2023-06-19T03:49:29;10.52;;;9.52;;
12687;SDS011;6408;59.388;17.798;2023-06-19T03:51:57;10.73;;;9.63;;
12687;SDS011;6408;59.388;17.798;2023-06-19T03:54:24;11.20;;;10.20;;
12687;SDS011;6408;59.388;17.798;2023-06-19T03:56:54;11.32;;;10.32;;
12687;SDS011;6408;59.388;17.798;2023-06-19T03:59:22;11.85;;;10.75;;
12687;SDS011;6408;59.388;17.798;2023-06-19T04:01:50;11.60;;;10.45;;
12687;SDS011;6408;59.388;17.798;2023-06-19T04:04:17;11.68;;;10.38;;
12687;SDS011;6408;59.388;17.798;2023-06-19T04:06:45;11.77;;;10.68;;
12687;SDS011;6408;59.388;17.798;2023-06-19T04:09:13;11.82;;;10.68;;
12687;SDS011;6408;59.388;17.798;2023-06-19T04:11:41;11.77;;;10.65;;
12687;SDS011;6408;59.388;17.798;2023-06-19T04:14:10;14.43;;;11.15;;
12687;SDS011;6408;59.388;17.798;2023-06-19T04:16:38;11.43;;;10.32;;
12687;SDS011;6408;59.388;17.798;2023-06-19T04:19:05;11.43;;;10.32;;
12687;SDS011;6408;59.388;17.798;2023-06-19T04:21:33;13.05;;;10.18;;
12687;SDS011;6408;59.388;17.798;2023-06-19T04:24:01;13.23;;;11.73;;
12687;SDS011;6408;59.388;17.798;2023-06-19T04:26:30;12.02;;;10.82;;
12687;SDS011;6408;59.388;17.798;2023-06-19T04:28:57;12.88;;;11.55;;
12687;SDS011;6408;59.388;17.798;2023-06-19T04:31:27;12.60;;;11.45;;
12687;SDS011;6408;59.388;17.798;2023-06-19T04:33:55;13.70;;;10.85;;
12687;SDS011;6408;59.388;17.798;2023-06-19T04:36:22;13.10;;;11.40;;
12687;SDS011;6408;59.388;17.798;2023-06-19T04:38:50;13.30;;;11.40;;
12687;SDS011;6408;59.388;17.798;2023-06-19T04:41:18;12.48;;;11.18;;
12687;SDS011;6408;59.388;17.798;2023-06-19T04:43:45;12.35;;;11.20;;
12687;SDS011;6408;59.388;17.798;2023-06-19T04:46:13;12.98;;;11.55;;
12687;SDS011;6408;59.388;17.798;2023-06-19T04:48:48;12.68;;;11.38;;
12687;SDS011;6408;59.388;17.798;2023-06-19T04:51:16;13.25;;;11.88;;
12687;SDS011;6408;59.388;17.798;2023-06-19T04:53:46;13.20;;;11.90;;
12687;SDS011;6408;59.388;17.798;2023-06-19T04:56:14;15.88;;;12.05;;
12687;SDS011;6408;59.388;17.798;2023-06-19T04:58:41;14.60;;;13.07;;
12687;SDS011;6408;59.388;17.798;2023-06-19T05:01:11;13.55;;;12.25;;
12687;SDS011;6408;59.388;17.798;2023-06-19T05:03:39;15.20;;;12.23;;
12687;SDS011;6408;59.388;17.798;2023-06-19T05:06:08;13.50;;;12.10;;
12687;SDS011;6408;59.388;17.798;2023-06-19T05:08:36;17.92;;;12.43;;
12687;SDS011;6408;59.388;17.798;2023-06-19T05:11:04;14.18;;;12.50;;
12687;SDS011;6408;59.388;17.798;2023-06-19T05:13:31;13.55;;;12.13;;
12687;SDS011;6408;59.388;17.798;2023-06-19T05:15:59;18.15;;;12.60;;
12687;SDS011;6408;59.388;17.798;2023-06-19T05:18:27;16.27;;;12.60;;
12687;SDS011;6408;59.388;17.798;2023-06-19T05:21:04;13.90;;;12.40;;
12687;SDS011;6408;59.388;17.798;2023-06-19T05:23:33;15.30;;;13.20;;
12687;SDS011;6408;59.388;17.798;2023-06-19T05:26:00;14.70;;;13.10;;
12687;SDS011;6408;59.388;17.798;2023-06-19T05:28:28;14.23;;;12.38;;
12687;SDS011;6408;59.388;17.798;2023-06-19T05:30:56;16.13;;;12.52;;
12687;SDS011;6408;59.388;17.798;2023-06-19T05:33:23;13.15;;;11.75;;
12687;SDS011;6408;59.388;17.798;2023-06-19T05:35:52;13.68;;;12.10;;
12687;SDS011;6408;59.388;17.798;2023-06-19T05:38:19;14.82;;;12.38;;
12687;SDS011;6408;59.388;17.798;2023-06-19T05:40:50;15.57;;;13.25;;
12687;SDS011;6408;59.388;17.798;2023-06-19T05:43:18;14.00;;;12.65;;
12687;SDS011;6408;59.388;17.798;2023-06-19T05:45:45;16.60;;;12.40;;
12687;SDS011;6408;59.388;17.798;2023-06-19T05:48:13;13.98;;;11.93;;
12687;SDS011;6408;59.388;17.798;2023-06-19T05:50:41;13.52;;;12.23;;
12687;SDS011;6408;59.388;17.798;2023-06-19T05:53:08;13.02;;;11.90;;
12687;SDS011;6408;59.388;17.798;2023-06-19T05:55:36;15.05;;;11.43;;
12687;SDS011;6408;59.388;17.798;2023-06-19T05:58:05;14.57;;;12.90;;
12687;SDS011;6408;59.388;17.798;2023-06-19T06:00:32;13.15;;;11.57;;
12687;SDS011;6408;59.388;17.798;2023-06-19T06:03:00;13.45;;;12.05;;
12687;SDS011;6408;59.388;17.798;2023-06-19T06:05:27;13.93;;;11.95;;
12687;SDS011;6408;59.388;17.798;2023-06-19T06:07:55;17.00;;;12.82;;
12687;SDS011;6408;59.388;17.798;2023-06-19T06:10:23;13.23;;;11.77;;
12687;SDS011;6408;59.388;17.798;2023-06-19T06:12:51;14.32;;;12.07;;
12687;SDS011;6408;59.388;17.798;2023-06-19T06:15:21;14.02;;;12.05;;
12687;SDS011;6408;59.388;17.798;2023-06-19T06:17:49;12.82;;;11.50;;
12687;SDS011;6408;59.388;17.798;2023-06-19T06:20:16;13.15;;;11.85;;
12687;SDS011;6408;59.388;17.798;2023-06-19T06:22:44;14.82;;;11.45;;
12687;SDS011;6408;59.388;17.798;2023-06-19T06:25:11;13.63;;;12.02;;
12687;SDS011;6408;59.388;17.798;2023-06-19T06:27:39;14.50;;;11.70;;
12687;SDS011;6408;59.388;17.798;2023-06-19T06:30:07;15.50;;;12.43;;
12687;SDS011;6408;59.388;17.798;2023-06-19T06:32:38;13.43;;;12.10;;
12687;SDS011;6408;59.388;17.798;2023-06-19T06:35:06;13.15;;;11.82;;
12687;SDS011;6408;59.388;17.798;2023-06-19T06:37:34;14.15;;;12.10;;
12687;SDS011;6408;59.388;17.798;2023-06-19T06:40:01;14.80;;;12.73;;
12687;SDS011;6408;59.388;17.798;2023-06-19T06:42:33;14.80;;;13.30;;
12687;SDS011;6408;59.388;17.798;2023-06-19T06:45:00;14.90;;;13.38;;
12687;SDS011;6408;59.388;17.798;2023-06-19T06:47:28;14.82;;;13.32;;
12687;SDS011;6408;59.388;17.798;2023-06-19T06:49:57;14.73;;;12.20;;
12687;SDS011;6408;59.388;17.798;2023-06-19T06:52:25;17.90;;;13.43;;
12687;SDS011;6408;59.388;17.798;2023-06-19T06:54:53;15.48;;;13.63;;
12687;SDS011;6408;59.388;17.798;2023-06-19T06:57:20;15.60;;;12.95;;
12687;SDS011;6408;59.388;17.798;2023-06-19T06:59:48;15.65;;;13.10;;
12687;SDS011;6408;59.388;17.798;2023-06-19T07:02:15;15.45;;;13.25;;
12687;SDS011;6408;59.388;17.798;2023-06-19T07:04:43;14.93;;;13.43;;
12687;SDS011;6408;59.388;17.798;2023-06-19T07:07:12;15.45;;;13.30;;
12687;SDS011;6408;59.388;17.798;2023-06-19T07:09:40;14.68;;;13.15;;
12687;SDS011;6408;59.388;17.798;2023-06-19T07:12:07;15.25;;;13.07;;
12687;SDS011;6408;59.388;17.798;2023-06-19T07:14:35;14.30;;;12.80;;
12687;SDS011;6408;59.388;17.798;2023-06-19T07:17:03;14.00;;;12.55;;
12687;SDS011;6408;59.388;17.798;2023-06-19T07:19:32;13.93;;;12.27;;
12687;SDS011;6408;59.388;17.798;2023-06-19T07:21:59;13.73;;;12.45;;
12687;SDS011;6408;59.388;17.798;2023-06-19T07:24:29;14.43;;;11.52;;
12687;SDS011;6408;59.388;17.798;2023-06-19T07:26:56;12.05;;;10.85;;
12687;SDS011;6408;59.388;17.798;2023-06-19T07:29:24;14.20;;;11.05;;
12687;SDS011;6408;59.388;17.798;2023-06-19T07:31:52;12.23;;;10.93;;
12687;SDS011;6408;59.388;17.798;2023-06-19T07:34:19;11.85;;;10.65;;
12687;SDS011;6408;59.388;17.798;2023-06-19T07:36:47;9.95;;;8.95;;
12687;SDS011;6408;59.388;17.798;2023-06-19T07:39:15;11.88;;;8.57;;
12687;SDS011;6408;59.388;17.798;2023-06-19T07:41:45;10.30;;;9.40;;
12687;SDS011;6408;59.388;17.798;2023-06-19T07:44:12;9.75;;;8.80;;
12687;SDS011;6408;59.388;17.798;2023-06-19T07:46:42;9.98;;;8.93;;
12687;SDS011;6408;59.388;17.798;2023-06-19T07:49:10;9.38;;;8.38;;
12687;SDS011;6408;59.388;17.798;2023-06-19T07:51:37;9.93;;;8.93;;
12687;SDS011;6408;59.388;17.798;2023-06-19T07:54:05;10.60;;;9.35;;
12687;SDS011;6408;59.388;17.798;2023-06-19T07:56:32;10.43;;;9.32;;
12687;SDS011;6408;59.388;17.798;2023-06-19T07:59:01;10.55;;;8.80;;
12687;SDS011;6408;59.388;17.798;2023-06-19T08:01:28;9.95;;;9.05;;
12687;SDS011;6408;59.388;17.798;2023-06-19T08:03:56;9.60;;;8.20;;
12687;SDS011;6408;59.388;17.798;2023-06-19T08:06:23;9.60;;;8.60;;
12687;SDS011;6408;59.388;17.798;2023-06-19T08:08:51;10.05;;;8.35;;
12687;SDS011;6408;59.388;17.798;2023-06-19T08:11:18;9.75;;;8.70;;
12687;SDS011;6408;59.388;17.798;2023-06-19T08:13:46;9.55;;;8.30;;
12687;SDS011;6408;59.388;17.798;2023-06-19T08:16:15;9.95;;;8.95;;
12687;SDS011;6408;59.388;17.798;2023-06-19T08:18:43;9.55;;;8.25;;
12687;SDS011;6408;59.388;17.798;2023-06-19T08:21:11;9.13;;;8.23;;
12687;SDS011;6408;59.388;17.798;2023-06-19T08:23:39;11.30;;;8.15;;
12687;SDS011;6408;59.388;17.798;2023-06-19T08:26:08;8.80;;;8.00;;
12687;SDS011;6408;59.388;17.798;2023-06-19T08:28:36;9.38;;;8.52;;
12687;SDS011;6408;59.388;17.798;2023-06-19T08:31:05;8.68;;;7.72;;
12687;SDS011;6408;59.388;17.798;2023-06-19T08:33:35;8.45;;;7.28;;
12687;SDS011;6408;59.388;17.798;2023-06-19T08:36:03;8.70;;;6.97;;
12687;SDS011;6408;59.388;17.798;2023-06-19T08:38:31;9.52;;;7.50;;
12687;SDS011;6408;59.388;17.798;2023-06-19T08:40:58;10.10;;;7.10;;
12687;SDS011;6408;59.388;17.798;2023-06-19T08:43:25;9.57;;;7.70;;
12687;SDS011;6408;59.388;17.798;2023-06-19T08:45:55;7.47;;;6.88;;
12687;SDS011;6408;59.388;17.798;2023-06-19T08:48:35;8.10;;;7.30;;
12687;SDS011;6408;59.388;17.798;2023-06-19T08:51:03;9.50;;;7.65;;
12687;SDS011;6408;59.388;17.798;2023-06-19T08:53:32;8.38;;;7.45;;
12687;SDS011;6408;59.388;17.798;2023-06-19T08:56:01;10.63;;;7.60;;
12687;SDS011;6408;59.388;17.798;2023-06-19T08:58:29;8.13;;;7.32;;
12687;SDS011;6408;59.388;17.798;2023-06-19T09:00:57;8.35;;;7.55;;
12687;SDS011;6408;59.388;17.798;2023-06-19T09:03:25;8.07;;;6.90;;
12687;SDS011;6408;59.388;17.798;2023-06-19T09:05:55;8.30;;;7.50;;
12687;SDS011;6408;59.388;17.798;2023-06-19T09:08:22;8.23;;;7.15;;
12687;SDS011;6408;59.388;17.798;2023-06-19T09:10:56;8.30;;;7.32;;
12687;SDS011;6408;59.388;17.798;2023-06-19T09:13:24;9.45;;;8.00;;
12687;SDS011;6408;59.388;17.798;2023-06-19T09:16:02;8.23;;;7.43;;
12687;SDS011;6408;59.388;17.798;2023-06-19T09:18:31;8.52;;;7.72;;
12687;SDS011;6408;59.388;17.798;2023-06-19T09:21:16;8.07;;;6.93;;
12687;SDS011;6408;59.388;17.798;2023-06-19T09:23:44;8.88;;;8.02;;
12687;SDS011;6408;59.388;17.798;2023-06-19T09:26:13;9.18;;;7.63;;
12687;SDS011;6408;59.388;17.798;2023-06-19T09:28:43;8.20;;;7.40;;
12687;SDS011;6408;59.388;17.798;2023-06-19T09:31:10;10.98;;;7.60;;
12687;SDS011;6408;59.388;17.798;2023-06-19T09:33:39;9.60;;;7.63;;
12687;SDS011;6408;59.388;17.798;2023-06-19T09:36:07;9.07;;;7.93;;
12687;SDS011;6408;59.388;17.798;2023-06-19T09:38:36;8.40;;;7.32;;
12687;SDS011;6408;59.388;17.798;2023-06-19T09:41:06;8.88;;;7.97;;
12687;SDS011;6408;59.388;17.798;2023-06-19T09:43:34;9.02;;;7.35;;
12687;SDS011;6408;59.388;17.798;2023-06-19T09:46:03;8.73;;;7.82;;
12687;SDS011;6408;59.388;17.798;2023-06-19T09:48:33;7.60;;;6.75;;
12687;SDS011;6408;59.388;17.798;2023-06-19T09:51:08;8.30;;;7.18;;
12687;SDS011;6408;59.388;17.798;2023-06-19T09:53:40;9.02;;;8.13;;
12687;SDS011;6408;59.388;17.798;2023-06-19T09:56:11;8.18;;;7.38;;
12687;SDS011;6408;59.388;17.798;2023-06-19T09:58:39;9.93;;;7.28;;
12687;SDS011;6408;59.388;17.798;2023-06-19T10:01:08;8.00;;;7.25;;
12687;SDS011;6408;59.388;17.798;2023-06-19T10:03:36;7.88;;;7.13;;
12687;SDS011;6408;59.388;17.798;2023-06-19T10:06:05;7.95;;;7.13;;
12687;SDS011;6408;59.388;17.798;2023-06-19T10:08:39;8.73;;;7.35;;
12687;SDS011;6408;59.388;17.798;2023-06-19T10:11:09;8.88;;;8.05;;
12687;SDS011;6408;59.388;17.798;2023-06-19T10:13:38;9.40;;;7.05;;
12687;SDS011;6408;59.388;17.798;2023-06-19T10:16:07;9.68;;;8.02;;
12687;SDS011;6408;59.388;17.798;2023-06-19T10:18:45;8.05;;;7.30;;
12687;SDS011;6408;59.388;17.798;2023-06-19T10:21:16;9.07;;;7.15;;
12687;SDS011;6408;59.388;17.798;2023-06-19T10:23:53;8.52;;;6.78;;
12687;SDS011;6408;59.388;17.798;2023-06-19T10:26:29;8.43;;;7.38;;
12687;SDS011;6408;59.388;17.798;2023-06-19T10:28:58;10.43;;;7.03;;
12687;SDS011;6408;59.388;17.798;2023-06-19T10:31:25;8.73;;;7.43;;
12687;SDS011;6408;59.388;17.798;2023-06-19T10:33:54;8.23;;;7.43;;
12687;SDS011;6408;59.388;17.798;2023-06-19T10:36:22;8.65;;;7.40;;
12687;SDS011;6408;59.388;17.798;2023-06-19T10:38:51;7.50;;;6.78;;
12687;SDS011;6408;59.388;17.798;2023-06-19T10:41:20;9.52;;;7.20;;
12687;SDS011;6408;59.388;17.798;2023-06-19T10:43:53;7.82;;;6.88;;
12687;SDS011;6408;59.388;17.798;2023-06-19T10:46:22;10.68;;;7.00;;
12687;SDS011;6408;59.388;17.798;2023-06-19T10:48:51;11.68;;;6.82;;
12687;SDS011;6408;59.388;17.798;2023-06-19T10:51:21;10.00;;;6.97;;
12687;SDS011;6408;59.388;17.798;2023-06-19T10:53:53;8.13;;;7.32;;
12687;SDS011;6408;59.388;17.798;2023-06-19T10:56:23;7.60;;;6.80;;
12687;SDS011;6408;59.388;17.798;2023-06-19T10:58:56;9.10;;;7.30;;
12687;SDS011;6408;59.388;17.798;2023-06-19T11:01:31;7.90;;;6.88;;
12687;SDS011;6408;59.388;17.798;2023-06-19T11:03:59;8.80;;;7.43;;
12687;SDS011;6408;59.388;17.798;2023-06-19T11:06:29;11.27;;;7.47;;
12687;SDS011;6408;59.388;17.798;2023-06-19T11:08:59;8.38;;;7.40;;
12687;SDS011;6408;59.388;17.798;2023-06-19T11:11:35;8.98;;;7.28;;
12687;SDS011;6408;59.388;17.798;2023-06-19T11:14:04;9.68;;;7.65;;
12687;SDS011;6408;59.388;17.798;2023-06-19T11:16:32;10.65;;;8.07;;
12687;SDS011;6408;59.388;17.798;2023-06-19T11:19:00;8.95;;;8.05;;
12687;SDS011;6408;59.388;17.798;2023-06-19T11:21:31;11.55;;;8.57;;
12687;SDS011;6408;59.388;17.798;2023-06-19T11:24:04;10.13;;;7.97;;
12687;SDS011;6408;59.388;17.798;2023-06-19T11:26:37;9.70;;;8.70;;
12687;SDS011;6408;59.388;17.798;2023-06-19T11:29:18;9.57;;;8.02;;
12687;SDS011;6408;59.388;17.798;2023-06-19T11:31:48;8.98;;;7.75;;
12687;SDS011;6408;59.388;17.798;2023-06-19T11:34:16;9.95;;;8.00;;
12687;SDS011;6408;59.388;17.798;2023-06-19T11:36:45;9.88;;;8.20;;
12687;SDS011;6408;59.388;17.798;2023-06-19T11:39:14;10.52;;;8.88;;
12687;SDS011;6408;59.388;17.798;2023-06-19T11:41:43;11.15;;;9.05;;
12687;SDS011;6408;59.388;17.798;2023-06-19T11:44:11;10.68;;;8.90;;
12687;SDS011;6408;59.388;17.798;2023-06-19T11:46:38;10.32;;;8.05;;
12687;SDS011;6408;59.388;17.798;2023-06-19T11:49:09;10.13;;;7.63;;
12687;SDS011;6408;59.388;17.798;2023-06-19T11:51:38;12.07;;;7.90;;
12687;SDS011;6408;59.388;17.798;2023-06-19T11:54:07;10.05;;;7.97;;
12687;SDS011;6408;59.388;17.798;2023-06-19T11:56:37;11.75;;;8.27;;
12687;SDS011;6408;59.388;17.798;2023-06-19T11:59:05;9.80;;;7.40;;
12687;SDS011;6408;59.388;17.798;2023-06-19T12:01:33;13.10;;;8.75;;
12687;SDS011;6408;59.388;17.798;2023-06-19T12:04:02;9.98;;;7.93;;
12687;SDS011;6408;59.388;17.798;2023-06-19T12:06:30;9.85;;;8.07;;
12687;SDS011;6408;59.388;17.798;2023-06-19T12:09:00;12.13;;;8.32;;
12687;SDS011;6408;59.388;17.798;2023-06-19T12:11:29;10.85;;;8.27;;
12687;SDS011;6408;59.388;17.798;2023-06-19T12:13:59;11.82;;;8.20;;
12687;SDS011;6408;59.388;17.798;2023-06-19T12:16:27;13.23;;;8.90;;
12687;SDS011;6408;59.388;17.798;2023-06-19T12:18:55;12.40;;;8.60;;
12687;SDS011;6408;59.388;17.798;2023-06-19T12:21:22;10.57;;;8.35;;
12687;SDS011;6408;59.388;17.798;2023-06-19T12:23:49;10.30;;;8.77;;
12687;SDS011;6408;59.388;17.798;2023-06-19T12:26:18;13.63;;;9.30;;
12687;SDS011;6408;59.388;17.798;2023-06-19T12:28:46;11.23;;;8.75;;
12687;SDS011;6408;59.388;17.798;2023-06-19T12:31:15;12.48;;;9.05;;
12687;SDS011;6408;59.388;17.798;2023-06-19T12:33:43;10.55;;;8.50;;
12687;SDS011;6408;59.388;17.798;2023-06-19T12:36:12;12.00;;;8.65;;
12687;SDS011;6408;59.388;17.798;2023-06-19T12:38:40;10.35;;;8.82;;
12687;SDS011;6408;59.388;17.798;2023-06-19T12:41:08;10.07;;;9.07;;
12687;SDS011;6408;59.388;17.798;2023-06-19T12:43:35;10.88;;;9.77;;
12687;SDS011;6408;59.388;17.798;2023-06-19T12:46:03;10.98;;;9.63;;
12687;SDS011;6408;59.388;17.798;2023-06-19T12:48:33;10.23;;;8.68;;
12687;SDS011;6408;59.388;17.798;2023-06-19T12:51:00;10.77;;;9.15;;
12687;SDS011;6408;59.388;17.798;2023-06-19T12:53:28;11.15;;;9.65;;
12687;SDS011;6408;59.388;17.798;2023-06-19T12:55:56;12.38;;;10.05;;
12687;SDS011;6408;59.388;17.798;2023-06-19T12:58:24;11.00;;;9.43;;
12687;SDS011;6408;59.388;17.798;2023-06-19T13:00:51;10.57;;;9.13;;
12687;SDS011;6408;59.388;17.798;2023-06-19T13:03:19;12.00;;;9.40;;
12687;SDS011;6408;59.388;17.798;2023-06-19T13:05:49;10.07;;;8.98;;
12687;SDS011;6408;59.388;17.798;2023-06-19T13:08:17;9.82;;;8.73;;
12687;SDS011;6408;59.388;17.798;2023-06-19T13:10:44;11.35;;;8.75;;
12687;SDS011;6408;59.388;17.798;2023-06-19T13:13:12;10.30;;;8.60;;
12687;SDS011;6408;59.388;17.798;2023-06-19T13:15:40;10.05;;;7.97;;
12687;SDS011;6408;59.388;17.798;2023-06-19T13:18:07;11.10;;;8.55;;
12687;SDS011;6408;59.388;17.798;2023-06-19T13:20:35;11.63;;;8.57;;
12687;SDS011;6408;59.388;17.798;2023-06-19T13:23:04;8.32;;;7.47;;
12687;SDS011;6408;59.388;17.798;2023-06-19T13:25:32;9.20;;;8.10;;
12687;SDS011;6408;59.388;17.798;2023-06-19T13:28:00;8.30;;;7.50;;
12687;SDS011;6408;59.388;17.798;2023-06-19T13:30:27;8.60;;;7.80;;
12687;SDS011;6408;59.388;17.798;2023-06-19T13:32:55;9.38;;;8.27;;
12687;SDS011;6408;59.388;17.798;2023-06-19T13:35:22;10.80;;;7.88;;
12687;SDS011;6408;59.388;17.798;2023-06-19T13:37:49;10.20;;;7.60;;
12687;SDS011;6408;59.388;17.798;2023-06-19T13:40:19;8.70;;;7.03;;
12687;SDS011;6408;59.388;17.798;2023-06-19T13:42:46;9.73;;;7.22;;
12687;SDS011;6408;59.388;17.798;2023-06-19T13:45:14;7.63;;;6.90;;
12687;SDS011;6408;59.388;17.798;2023-06-19T13:47:41;8.57;;;7.68;;
12687;SDS011;6408;59.388;17.798;2023-06-19T13:50:09;8.55;;;7.10;;
12687;SDS011;6408;59.388;17.798;2023-06-19T13:52:43;8.30;;;7.45;;
12687;SDS011;6408;59.388;17.798;2023-06-19T13:55:12;7.93;;;7.10;;
12687;SDS011;6408;59.388;17.798;2023-06-19T13:57:42;8.15;;;7.35;;
12687;SDS011;6408;59.388;17.798;2023-06-19T14:00:10;7.68;;;6.93;;
12687;SDS011;6408;59.388;17.798;2023-06-19T14:02:39;8.88;;;6.95;;
12687;SDS011;6408;59.388;17.798;2023-06-19T14:05:07;9.32;;;7.47;;
12687;SDS011;6408;59.388;17.798;2023-06-19T14:07:36;8.15;;;7.35;;
12687;SDS011;6408;59.388;17.798;2023-06-19T14:10:03;10.48;;;7.53;;
12687;SDS011;6408;59.388;17.798;2023-06-19T14:12:31;8.43;;;7.05;;
12687;SDS011;6408;59.388;17.798;2023-06-19T14:15:01;9.07;;;7.40;;
12687;SDS011;6408;59.388;17.798;2023-06-19T14:17:29;9.43;;;7.70;;
12687;SDS011;6408;59.388;17.798;2023-06-19T14:19:56;8.93;;;8.02;;
12687;SDS011;6408;59.388;17.798;2023-06-19T14:22:24;8.80;;;7.50;;
12687;SDS011;6408;59.388;17.798;2023-06-19T14:24:51;7.80;;;7.10;;
12687;SDS011;6408;59.388;17.798;2023-06-19T14:27:24;7.10;;;6.50;;
12687;SDS011;6408;59.388;17.798;2023-06-19T14:29:52;7.93;;;7.13;;
12687;SDS011;6408;59.388;17.798;2023-06-19T14:32:22;6.95;;;6.35;;
12687;SDS011;6408;59.388;17.798;2023-06-19T14:34:50;7.55;;;6.80;;
12687;SDS011;6408;59.388;17.798;2023-06-19T14:37:17;9.48;;;6.88;;
12687;SDS011;6408;59.388;17.798;2023-06-19T14:39:45;8.93;;;6.85;;